Time;durP1;ratioP1;P1;durP2;ratioP2;P2;SDS_P1;SDS_P2;PMS_P1;PMS_P2;Temp;Humidity;BMP_temperature;BMP_pressure;BME280_temperature;BME280_humidity;BME280_pressure;Samples;Min_cycle;Max_cycle;Signal;HPM_P1;HPM_P2
2022/12/05 00:02:07;;;;;;;46.63;33.50;;;2.60;99.90;;;;;;5027228;28;20037;-75
2022/12/05 00:04:33;;;;;;;43.97;34.33;;;2.60;99.90;;;;;;5028504;28;20053;-74
2022/12/05 00:06:59;;;;;;;44.17;34.35;;;2.60;99.90;;;;;;5033219;28;20025;-74
2022/12/05 00:09:25;;;;;;;56.80;34.13;;;2.60;99.90;;;;;;5048211;28;20040;-74
2022/12/05 00:11:50;;;;;;;50.50;31.55;;;2.60;99.90;;;;;;5048019;28;20029;-75
2022/12/05 00:14:16;;;;;;;46.83;34.13;;;2.60;99.90;;;;;;5048123;28;20029;-76
2022/12/05 00:16:43;;;;;;;42.63;31.67;;;2.60;99.90;;;;;;5046650;28;20053;-75
2022/12/05 00:19:12;;;;;;;47.28;32.60;;;2.60;99.90;;;;;;5045837;28;20498;-74
2022/12/05 00:21:38;;;;;;;37.95;32.20;;;2.60;99.90;;;;;;5040546;28;20034;-75
2022/12/05 00:24:05;;;;;;;50.55;34.42;;;2.60;99.90;;;;;;5026668;28;20092;-74
2022/12/05 00:26:32;;;;;;;35.38;31.60;;;2.60;99.90;;;;;;5026893;28;20026;-75
2022/12/05 00:28:58;;;;;;;45.33;33.40;;;2.70;99.90;;;;;;5027966;28;20399;-75
2022/12/05 00:31:25;;;;;;;40.80;31.88;;;2.60;99.90;;;;;;5026703;28;20045;-75
2022/12/05 00:33:52;;;;;;;36.25;30.98;;;2.70;99.90;;;;;;5027953;28;20098;-75
2022/12/05 00:36:24;;;;;;;42.42;31.02;;;2.60;99.90;;;;;;5031606;28;20025;-76
2022/12/05 00:38:51;;;;;;;40.80;30.77;;;2.60;99.90;;;;;;5045239;28;20029;-76
2022/12/05 00:41:24;;;;;;;35.65;31.65;;;2.60;99.90;;;;;;5046270;28;20045;-75
2022/12/05 00:43:50;;;;;;;39.80;30.55;;;2.60;99.90;;;;;;5046448;28;20037;-75
2022/12/05 00:46:23;;;;;;;42.17;34.67;;;2.60;99.90;;;;;;5046178;28;20430;-75
2022/12/05 00:48:51;;;;;;;41.15;31.92;;;2.60;99.90;;;;;;5046046;28;20120;-75
2022/12/05 00:51:29;;;;;;;40.95;32.03;;;2.70;99.90;;;;;;5047352;28;20037;-75
2022/12/05 00:53:59;;;;;;;41.95;31.17;;;2.70;99.90;;;;;;5045604;28;20048;-75
2022/12/05 00:56:26;;;;;;;45.70;33.75;;;2.70;99.90;;;;;;5029423;28;20032;-75
2022/12/05 00:58:54;;;;;;;37.80;32.83;;;2.70;99.90;;;;;;5047140;28;20098;-76
2022/12/05 01:01:32;;;;;;;33.38;29.05;;;2.70;99.90;;;;;;5047286;28;20044;-76
2022/12/05 01:04:00;;;;;;;43.22;34.50;;;2.70;99.90;;;;;;5045862;28;20053;-75
2022/12/05 01:06:27;;;;;;;37.72;32.88;;;2.70;99.90;;;;;;5045824;28;20092;-76
2022/12/05 01:08:54;;;;;;;43.83;30.77;;;2.70;99.90;;;;;;5032375;28;20053;-76
2022/12/05 01:11:22;;;;;;;43.55;32.63;;;2.70;99.90;;;;;;5027092;28;20434;-75
2022/12/05 01:13:48;;;;;;;47.15;33.50;;;2.70;99.90;;;;;;5025987;28;20038;-75
2022/12/05 01:16:25;;;;;;;45.53;35.67;;;2.70;99.90;;;;;;5009382;28;20038;-76
2022/12/05 01:18:51;;;;;;;49.97;34.05;;;2.70;99.90;;;;;;5027140;28;20026;-76
2022/12/05 01:21:18;;;;;;;38.03;32.58;;;2.70;99.90;;;;;;5026908;28;20032;-75
2022/12/05 01:23:44;;;;;;;50.03;34.70;;;2.70;99.90;;;;;;5042211;28;20053;-75
2022/12/05 01:26:12;;;;;;;50.63;32.05;;;2.70;99.90;;;;;;5046833;28;20045;-75
2022/12/05 01:28:38;;;;;;;42.22;33.72;;;2.70;99.90;;;;;;5045333;28;20498;-76
2022/12/05 01:31:28;;;;;;;54.65;33.78;;;2.70;99.90;;;;;;5046398;28;20037;-76
2022/12/05 01:33:56;;;;;;;46.45;29.50;;;2.70;99.90;;;;;;5046668;28;20125;-75
2022/12/05 01:36:24;;;;;;;48.95;35.60;;;2.60;99.90;;;;;;5046568;28;20080;-75
2022/12/05 01:38:50;;;;;;;51.83;35.00;;;2.70;99.90;;;;;;5026795;28;20061;-75
2022/12/05 01:41:19;;;;;;;44.30;33.92;;;2.70;99.90;;;;;;5026753;28;20053;-75
2022/12/05 01:44:02;;;;;;;42.38;32.13;;;2.70;99.90;;;;;;5026484;28;20097;-75
2022/12/05 01:46:31;;;;;;;44.42;34.72;;;2.70;99.90;;;;;;5026664;28;20034;-76
2022/12/05 01:49:07;;;;;;;46.85;33.67;;;2.70;99.90;;;;;;5026616;28;20034;-75
2022/12/05 01:51:36;;;;;;;48.90;31.38;;;2.70;99.90;;;;;;5033311;28;20064;-75
2022/12/05 01:54:04;;;;;;;50.08;35.95;;;2.80;99.90;;;;;;5044889;28;20467;-76
2022/12/05 01:56:32;;;;;;;44.20;35.20;;;2.80;99.90;;;;;;5046231;28;20036;-76
2022/12/05 01:58:59;;;;;;;48.70;35.85;;;2.80;99.90;;;;;;5046229;28;20168;-76
2022/12/05 02:01:25;;;;;;;43.13;34.17;;;2.80;99.90;;;;;;5044907;28;20394;-75
2022/12/05 02:03:54;;;;;;;38.60;27.88;;;2.80;99.90;;;;;;5044782;28;20065;-76
2022/12/05 02:06:22;;;;;;;38.45;33.90;;;2.70;99.90;;;;;;5042710;28;20032;-75
2022/12/05 02:08:49;;;;;;;48.05;31.92;;;2.80;99.90;;;;;;5024754;28;20041;-75
2022/12/05 02:11:15;;;;;;;48.50;32.35;;;2.80;99.90;;;;;;5026160;28;20033;-75
2022/12/05 02:13:56;;;;;;;51.75;37.20;;;2.80;99.90;;;;;;5026234;28;20040;-75
2022/12/05 02:16:52;;;;;;;48.33;31.70;;;2.80;99.90;;;;;;5024887;28;20032;-75
2022/12/05 02:19:30;;;;;;;46.47;34.90;;;2.80;99.90;;;;;;5024977;28;20036;-75
2022/12/05 02:22:02;;;;;;;48.95;34.97;;;2.80;99.90;;;;;;5033534;28;20125;-75
2022/12/05 02:24:31;;;;;;;46.80;33.38;;;2.80;99.90;;;;;;5044199;28;20061;-75
2022/12/05 02:27:12;;;;;;;42.20;30.30;;;2.80;99.90;;;;;;5027955;28;20034;-75
2022/12/05 02:29:59;;;;;;;39.00;30.40;;;2.90;99.90;;;;;;5044670;28;20034;-75
2022/12/05 02:32:46;;;;;;;36.08;28.60;;;2.80;99.90;;;;;;5044536;28;20040;-74
2022/12/05 02:35:49;;;;;;;45.25;33.83;;;2.80;99.90;;;;;;5045916;28;20459;-75
2022/12/05 02:38:37;;;;;;;48.97;34.80;;;3.00;99.90;;;;;;5026826;28;20036;-75
2022/12/05 02:41:15;;;;;;;39.05;32.83;;;2.80;99.90;;;;;;5044757;28;20033;-76
2022/12/05 02:44:04;;;;;;;47.28;35.03;;;2.80;99.90;;;;;;5048437;28;20060;-75
2022/12/05 02:46:34;;;;;;;40.15;32.28;;;2.80;99.90;;;;;;5048095;28;20045;-75
2022/12/05 02:49:06;;;;;;;44.13;35.20;;;2.80;99.90;;;;;;5048349;28;20034;-75
2022/12/05 02:51:40;;;;;;;43.63;31.08;;;2.90;99.90;;;;;;5048459;28;20029;-75
2022/12/05 02:54:13;;;;;;;46.05;30.58;;;2.80;99.90;;;;;;5049753;28;20033;-76
2022/12/05 02:56:43;;;;;;;44.15;34.17;;;2.80;99.90;;;;;;5049653;28;20030;-76
2022/12/05 02:59:10;;;;;;;44.60;34.65;;;2.80;99.90;;;;;;5048747;28;20032;-76
2022/12/05 03:01:35;;;;;;;42.78;33.15;;;2.80;99.90;;;;;;5049688;28;20033;-76
2022/12/05 03:04:04;;;;;;;55.08;35.78;;;2.80;99.90;;;;;;5031332;28;20109;-76
2022/12/05 03:06:35;;;;;;;33.03;25.00;;;2.80;99.90;;;;;;5049462;28;20140;-75
2022/12/05 03:09:12;;;;;;;47.47;33.25;;;2.80;99.90;;;;;;5049224;28;20029;-75
2022/12/05 03:11:52;;;;;;;43.70;32.92;;;3.00;99.90;;;;;;5049328;28;20038;-75
2022/12/05 03:14:30;;;;;;;47.05;34.90;;;2.80;99.90;;;;;;5041436;28;20026;-75
2022/12/05 03:17:01;;;;;;;43.38;32.40;;;2.80;99.90;;;;;;5028255;28;20029;-75
2022/12/05 03:19:35;;;;;;;56.40;37.55;;;2.80;99.90;;;;;;5028193;28;20030;-75
2022/12/05 03:22:17;;;;;;;50.03;37.15;;;2.80;99.90;;;;;;5027800;28;20034;-75
2022/12/05 03:24:43;;;;;;;47.72;32.97;;;2.90;99.90;;;;;;5027983;28;20041;-76
2022/12/05 03:27:26;;;;;;;56.88;34.83;;;2.80;99.90;;;;;;5029153;28;20046;-75
2022/12/05 03:29:57;;;;;;;53.25;35.72;;;2.80;99.90;;;;;;5030381;28;20026;-75
2022/12/05 03:32:36;;;;;;;48.72;36.17;;;2.90;99.90;;;;;;5029640;28;20034;-75
2022/12/05 03:35:11;;;;;;;46.78;33.97;;;2.80;99.90;;;;;;5037154;28;20053;-75
2022/12/05 03:37:55;;;;;;;48.17;35.85;;;2.80;99.90;;;;;;5047467;28;20454;-76
2022/12/05 03:40:31;;;;;;;44.38;35.08;;;2.90;99.90;;;;;;5047410;28;20029;-75
2022/12/05 03:43:07;;;;;;;52.83;39.08;;;2.90;99.90;;;;;;5047389;28;20196;-75
2022/12/05 03:45:48;;;;;;;53.30;33.55;;;2.80;99.90;;;;;;5048869;28;20037;-74
2022/12/05 03:48:34;;;;;;;51.35;35.85;;;2.90;99.90;;;;;;5031292;28;20030;-75
2022/12/05 03:51:02;;;;;;;60.20;34.22;;;2.90;99.90;;;;;;5028838;28;20029;-75
2022/12/05 03:53:34;;;;;;;62.95;39.80;;;2.90;99.90;;;;;;5044118;28;20029;-74
2022/12/05 03:56:08;;;;;;;47.15;37.22;;;2.90;99.90;;;;;;5047318;28;20021;-74
2022/12/05 03:58:39;;;;;;;47.63;31.60;;;2.90;99.90;;;;;;5048399;28;20056;-75
2022/12/05 04:01:07;;;;;;;49.25;35.88;;;2.90;99.90;;;;;;5048561;28;20108;-75
2022/12/05 04:03:43;;;;;;;53.95;35.55;;;2.90;99.90;;;;;;5026756;28;20045;-75
2022/12/05 04:06:27;;;;;;;38.60;30.20;;;3.00;99.90;;;;;;5028514;28;20036;-75
2022/12/05 04:09:01;;;;;;;51.05;35.30;;;2.90;99.90;;;;;;5026979;28;20061;-75
2022/12/05 04:11:32;;;;;;;47.03;33.60;;;3.00;99.90;;;;;;5043716;28;20115;-75
2022/12/05 04:14:12;;;;;;;48.50;34.63;;;3.00;99.90;;;;;;5027196;28;20030;-75
2022/12/05 04:17:04;;;;;;;52.35;35.20;;;3.00;99.90;;;;;;5034234;28;20108;-75
2022/12/05 04:22:29;;;;;;;53.05;35.42;;;3.00;99.90;;;;;;5046616;28;20033;-75
2022/12/05 04:27:47;;;;;;;51.05;37.30;;;2.90;99.90;;;;;;5047983;28;20040;-75
2022/12/05 04:30:17;;;;;;;50.08;39.97;;;3.00;99.90;;;;;;5047765;28;20037;-75
2022/12/05 04:33:04;;;;;;;58.38;41.80;;;3.00;99.90;;;;;;5030269;28;20029;-75
2022/12/05 04:35:42;;;;;;;54.13;39.88;;;3.00;99.90;;;;;;5026642;28;20045;-75
2022/12/05 04:38:14;;;;;;;55.90;37.47;;;3.00;99.90;;;;;;5027856;28;20033;-76
2022/12/05 04:40:49;;;;;;;58.95;38.40;;;2.90;99.90;;;;;;5026420;28;20029;-75
2022/12/05 04:43:17;;;;;;;48.75;35.53;;;2.90;99.90;;;;;;5026601;28;20030;-76
2022/12/05 04:45:44;;;;;;;67.60;40.95;;;2.90;99.90;;;;;;5030241;28;20183;-75
2022/12/05 04:48:13;;;;;;;52.25;41.05;;;2.90;99.90;;;;;;5046280;28;20037;-76
2022/12/05 04:50:41;;;;;;;50.28;30.45;;;2.90;99.90;;;;;;5046454;28;20037;-75
2022/12/05 04:53:09;;;;;;;56.50;40.35;;;3.00;99.90;;;;;;5047336;28;20034;-75
2022/12/05 04:55:38;;;;;;;54.25;37.17;;;2.90;99.90;;;;;;5047300;28;20034;-75
2022/12/05 04:58:18;;;;;;;51.95;30.38;;;2.90;99.90;;;;;;5029603;28;20026;-74
2022/12/05 05:00:59;;;;;;;49.58;34.97;;;3.00;99.90;;;;;;5046775;28;20387;-73
2022/12/05 05:03:44;;;;;;;51.65;37.05;;;2.90;99.90;;;;;;5045883;28;20059;-73
2022/12/05 05:06:11;;;;;;;60.45;39.22;;;2.90;99.90;;;;;;5045823;28;20041;-73
2022/12/05 05:08:55;;;;;;;65.93;44.42;;;2.90;99.90;;;;;;5045621;28;20044;-74
2022/12/05 05:11:27;;;;;;;56.28;42.17;;;3.00;99.90;;;;;;5047105;28;20033;-74
2022/12/05 05:13:54;;;;;;;47.63;36.63;;;3.00;99.90;;;;;;5045686;28;20098;-73
2022/12/05 05:16:30;;;;;;;63.47;43.10;;;2.90;99.90;;;;;;5025753;28;20030;-73
2022/12/05 05:18:56;;;;;;;71.47;44.03;;;3.00;99.90;;;;;;5025980;28;20068;-74
2022/12/05 05:21:28;;;;;;;63.50;37.55;;;3.00;99.90;;;;;;5028981;28;20029;-74
2022/12/05 05:23:54;;;;;;;55.38;40.30;;;3.00;99.90;;;;;;5041287;28;20037;-74
2022/12/05 05:26:21;;;;;;;65.70;38.85;;;3.00;99.90;;;;;;5044910;28;20040;-76
2022/12/05 05:28:47;;;;;;;60.22;38.90;;;3.00;99.90;;;;;;5046668;28;20143;-73
2022/12/05 05:31:13;;;;;;;51.05;40.42;;;3.00;99.90;;;;;;5045105;28;20034;-74
2022/12/05 05:33:39;;;;;;;47.75;38.65;;;3.00;99.90;;;;;;5024597;28;20045;-74
2022/12/05 05:36:08;;;;;;;58.00;38.97;;;3.00;99.90;;;;;;5026735;28;20060;-74
2022/12/05 05:38:36;;;;;;;54.63;37.58;;;3.00;99.90;;;;;;5025435;28;20037;-74
2022/12/05 05:41:02;;;;;;;57.90;39.08;;;3.00;99.90;;;;;;5025267;28;20054;-76
2022/12/05 05:43:30;;;;;;;54.78;39.47;;;3.00;99.90;;;;;;5025467;28;20037;-74
2022/12/05 05:45:56;;;;;;;53.38;36.67;;;3.00;99.90;;;;;;5008943;28;20042;-74
2022/12/05 05:48:22;;;;;;;55.97;37.70;;;3.00;99.90;;;;;;5028693;28;20482;-73
2022/12/05 05:50:48;;;;;;;50.17;35.75;;;2.90;99.90;;;;;;5053471;28;20038;-76
2022/12/05 05:53:14;;;;;;;62.83;37.38;;;2.90;99.90;;;;;;5036406;28;20059;-74
2022/12/05 05:55:41;;;;;;;54.15;36.92;;;3.00;99.90;;;;;;5029839;28;20034;-75
2022/12/05 05:58:07;;;;;;;42.10;33.63;;;3.00;99.90;;;;;;4997792;28;20029;-74
2022/12/05 06:00:35;;;;;;;52.08;36.42;;;3.10;99.90;;;;;;5020053;28;20097;-74
2022/12/05 06:03:01;;;;;;;48.80;32.75;;;2.90;99.90;;;;;;5043124;28;20032;-75
2022/12/05 06:05:30;;;;;;;42.78;32.53;;;3.00;99.90;;;;;;5035679;28;20060;-73
2022/12/05 06:07:56;;;;;;;50.10;35.03;;;3.00;99.90;;;;;;5041883;28;20030;-73
2022/12/05 06:10:23;;;;;;;48.28;37.47;;;3.00;99.90;;;;;;5030463;28;20037;-75
2022/12/05 06:12:49;;;;;;;40.60;30.52;;;2.90;99.90;;;;;;5033693;28;20025;-73
2022/12/05 06:15:15;;;;;;;58.40;34.20;;;3.00;99.90;;;;;;5036699;28;20484;-74
2022/12/05 06:17:41;;;;;;;48.17;31.83;;;3.00;99.90;;;;;;5038028;28;20034;-74
2022/12/05 06:20:07;;;;;;;44.72;31.83;;;3.00;99.90;;;;;;5024589;28;20045;-74
2022/12/05 06:22:33;;;;;;;41.00;30.00;;;3.00;99.90;;;;;;5024427;28;20540;-74
2022/12/05 06:24:59;;;;;;;50.58;30.35;;;3.00;99.90;;;;;;5037475;28;20448;-74
2022/12/05 06:27:27;;;;;;;33.35;28.10;;;3.00;99.90;;;;;;5022616;28;20040;-73
2022/12/05 06:29:53;;;;;;;36.10;27.63;;;3.00;99.90;;;;;;5033090;28;20056;-74
2022/12/05 06:32:19;;;;;;;40.65;23.13;;;3.00;99.90;;;;;;5012109;28;20025;-73
2022/12/05 06:34:45;;;;;;;36.08;29.48;;;3.00;99.90;;;;;;5025015;28;20030;-74
2022/12/05 06:37:11;;;;;;;38.53;28.40;;;3.00;99.90;;;;;;5018337;28;20030;-73
2022/12/05 06:39:37;;;;;;;31.38;23.48;;;3.00;99.90;;;;;;5021126;28;20493;-74
2022/12/05 06:42:03;;;;;;;37.53;23.88;;;3.00;99.90;;;;;;5008558;28;20034;-74
2022/12/05 06:44:29;;;;;;;32.15;25.02;;;3.10;99.90;;;;;;5043190;28;20033;-73
2022/12/05 06:46:55;;;;;;;27.77;24.30;;;3.10;99.90;;;;;;5028052;28;20089;-73
2022/12/05 06:49:24;;;;;;;27.42;23.52;;;3.10;99.90;;;;;;5037315;28;20034;-76
2022/12/05 06:51:51;;;;;;;24.20;21.27;;;3.10;99.90;;;;;;5025062;28;20394;-75
2022/12/05 06:54:16;;;;;;;25.92;22.52;;;3.10;99.90;;;;;;5033128;28;20030;-75
2022/12/05 06:56:42;;;;;;;29.75;23.67;;;3.00;99.90;;;;;;5025244;28;20026;-75
2022/12/05 06:59:08;;;;;;;24.33;21.77;;;3.10;99.90;;;;;;5024292;28;20026;-73
2022/12/05 07:01:37;;;;;;;23.67;21.25;;;3.10;99.90;;;;;;5028028;28;20084;-75
2022/12/05 07:04:05;;;;;;;39.13;24.10;;;3.10;99.90;;;;;;5024528;28;20069;-73
2022/12/05 07:06:33;;;;;;;35.75;24.63;;;3.00;99.90;;;;;;5044532;28;20034;-74
2022/12/05 07:08:59;;;;;;;26.85;22.33;;;3.00;99.90;;;;;;5034143;28;20025;-76
2022/12/05 07:11:25;;;;;;;35.80;25.33;;;3.10;99.90;;;;;;5042784;28;20065;-75
2022/12/05 07:13:51;;;;;;;28.98;25.95;;;3.10;99.90;;;;;;5043509;28;20032;-76
2022/12/05 07:16:18;;;;;;;28.95;21.88;;;3.10;99.90;;;;;;5027359;28;20388;-74
2022/12/05 07:18:43;;;;;;;34.15;24.15;;;3.00;99.90;;;;;;5043323;28;20017;-75
2022/12/05 07:21:12;;;;;;;37.50;26.95;;;3.00;99.90;;;;;;5037240;28;20474;-76
2022/12/05 07:23:38;;;;;;;30.77;26.90;;;3.10;99.90;;;;;;5027291;28;20025;-76
2022/12/05 07:26:08;;;;;;;26.23;23.17;;;3.00;99.90;;;;;;5038689;28;20030;-75
2022/12/05 07:28:35;;;;;;;34.47;25.45;;;3.10;99.90;;;;;;5042642;28;20029;-76
2022/12/05 07:31:06;;;;;;;29.85;24.80;;;3.10;99.90;;;;;;5027321;28;20038;-76
2022/12/05 07:33:33;;;;;;;30.75;26.45;;;3.10;99.90;;;;;;5029107;28;20034;-76
2022/12/05 07:36:03;;;;;;;35.72;26.33;;;3.10;99.90;;;;;;5027561;28;20022;-76
2022/12/05 07:38:30;;;;;;;34.10;24.60;;;3.10;99.90;;;;;;5047193;28;20083;-76
2022/12/05 07:40:56;;;;;;;42.28;24.55;;;3.10;99.90;;;;;;5013603;28;20108;-76
2022/12/05 07:43:22;;;;;;;33.95;28.38;;;3.10;99.90;;;;;;5047120;28;20029;-76
2022/12/05 07:45:47;;;;;;;34.90;27.52;;;3.10;99.90;;;;;;5033314;28;20045;-76
2022/12/05 07:48:13;;;;;;;31.50;26.75;;;3.10;99.90;;;;;;5027800;28;20042;-76
2022/12/05 07:50:39;;;;;;;34.42;26.85;;;3.10;99.90;;;;;;5034342;28;20033;-76
2022/12/05 07:53:05;;;;;;;33.63;28.45;;;3.10;99.90;;;;;;5013656;28;20143;-76
2022/12/05 07:55:30;;;;;;;31.90;25.17;;;3.10;99.90;;;;;;5020713;28;20038;-75
2022/12/05 07:57:57;;;;;;;30.77;24.98;;;3.10;99.90;;;;;;5028350;28;20127;-75
2022/12/05 08:00:23;;;;;;;33.03;27.13;;;3.10;99.90;;;;;;5011193;28;20061;-75
2022/12/05 08:02:48;;;;;;;33.40;27.38;;;3.10;99.90;;;;;;5031437;28;20033;-75
2022/12/05 08:05:14;;;;;;;34.20;26.33;;;3.10;99.90;;;;;;5039988;28;20050;-75
2022/12/05 08:07:40;;;;;;;38.42;25.45;;;3.10;99.90;;;;;;5011085;28;20038;-75
2022/12/05 08:10:07;;;;;;;29.75;24.95;;;3.10;99.90;;;;;;5036631;28;20029;-75
2022/12/05 08:12:33;;;;;;;32.83;27.33;;;3.10;99.90;;;;;;5046461;28;20030;-75
2022/12/05 08:14:58;;;;;;;34.78;27.50;;;3.10;99.90;;;;;;5030119;28;20056;-75
2022/12/05 08:17:25;;;;;;;38.83;28.38;;;3.20;99.90;;;;;;5027049;28;20034;-75
2022/12/05 08:19:51;;;;;;;31.02;27.13;;;3.20;99.90;;;;;;5028010;28;20046;-75
2022/12/05 08:22:17;;;;;;;37.05;27.27;;;3.20;99.90;;;;;;5027043;28;20053;-75
2022/12/05 08:24:43;;;;;;;27.77;24.50;;;3.20;99.90;;;;;;5040916;28;20037;-75
2022/12/05 08:27:08;;;;;;;30.73;24.92;;;3.20;99.90;;;;;;5030219;28;20061;-75
2022/12/05 08:29:34;;;;;;;31.08;24.65;;;3.30;99.90;;;;;;5045797;28;20451;-75
2022/12/05 08:32:00;;;;;;;31.30;25.35;;;3.20;99.90;;;;;;5038740;28;20034;-75
2022/12/05 08:34:26;;;;;;;29.35;25.58;;;3.20;99.90;;;;;;5026723;28;20030;-75
2022/12/05 08:36:52;;;;;;;35.92;25.27;;;3.20;99.90;;;;;;5026789;28;20030;-75
2022/12/05 08:39:18;;;;;;;32.30;27.35;;;3.30;99.90;;;;;;5026883;28;20061;-75
2022/12/05 08:41:46;;;;;;;40.90;26.95;;;3.20;99.90;;;;;;5045118;28;20044;-76
2022/12/05 08:44:17;;;;;;;34.35;26.70;;;3.20;99.90;;;;;;5046086;28;20033;-75
2022/12/05 08:46:46;;;;;;;30.10;26.88;;;3.30;99.90;;;;;;5027702;28;20050;-75
2022/12/05 08:49:12;;;;;;;27.45;24.20;;;3.30;99.90;;;;;;5045633;28;20033;-75
2022/12/05 08:51:40;;;;;;;29.20;24.02;;;3.30;99.90;;;;;;5046392;28;20033;-75
2022/12/05 08:54:06;;;;;;;26.10;21.90;;;3.40;99.90;;;;;;5044370;28;20029;-77
2022/12/05 08:56:32;;;;;;;31.05;24.63;;;3.40;99.90;;;;;;5034615;28;20040;-75
2022/12/05 08:59:00;;;;;;;28.20;22.10;;;3.40;99.90;;;;;;5036993;28;20097;-76
2022/12/05 09:01:30;;;;;;;23.75;19.38;;;3.40;99.90;;;;;;5054435;28;20025;-76
2022/12/05 09:03:59;;;;;;;30.58;20.52;;;3.40;99.90;;;;;;5033203;28;20046;-75
2022/12/05 09:06:26;;;;;;;25.95;22.15;;;3.40;99.90;;;;;;5042159;28;20467;-75
2022/12/05 09:09:01;;;;;;;27.80;21.23;;;3.40;99.90;;;;;;5026055;28;20022;-76
2022/12/05 09:11:29;;;;;;;27.85;23.23;;;3.40;99.90;;;;;;5018983;28;20037;-77
2022/12/05 09:13:57;;;;;;;28.33;22.73;;;3.40;99.90;;;;;;5033287;28;20087;-76
2022/12/05 09:16:35;;;;;;;33.58;23.13;;;3.50;99.90;;;;;;5015247;28;20386;-76
2022/12/05 09:19:00;;;;;;;20.90;18.00;;;3.50;99.90;;;;;;5026158;28;20026;-76
2022/12/05 09:21:29;;;;;;;26.92;20.73;;;3.50;99.90;;;;;;5046753;28;20053;-76
2022/12/05 09:38:32;;;;;;;21.73;17.02;;;3.80;99.90;;;;;;5144258;27;20405;-79
2022/12/05 09:42:03;;;;;;;29.33;16.83;;;3.70;99.90;;;;;;5125464;28;20031;-79
2022/12/05 09:44:43;;;;;;;21.55;19.35;;;3.70;99.90;;;;;;5125376;28;20070;-79
2022/12/05 09:47:35;;;;;;;22.45;16.98;;;3.60;99.90;;;;;;5108430;28;20062;-79
2022/12/05 09:50:15;;;;;;;26.02;19.55;;;3.60;99.90;;;;;;5108203;28;20023;-79
2022/12/05 09:53:06;;;;;;;19.90;17.42;;;3.70;99.90;;;;;;5125815;28;20024;-79
2022/12/05 09:55:50;;;;;;;21.90;17.52;;;3.60;99.90;;;;;;5125660;28;20055;-79
2022/12/05 09:58:40;;;;;;;22.52;16.00;;;3.60;99.90;;;;;;5125224;28;20099;-78
2022/12/05 10:01:16;;;;;;;20.88;18.48;;;3.60;99.90;;;;;;5125377;28;20031;-79
2022/12/05 10:04:06;;;;;;;21.10;18.02;;;3.70;99.90;;;;;;5143998;28;20031;-78
2022/12/05 10:06:47;;;;;;;17.10;15.45;;;3.70;99.90;;;;;;5143668;28;20038;-79
2022/12/05 10:09:34;;;;;;;17.02;14.95;;;3.80;99.90;;;;;;5108380;28;20033;-79
2022/12/05 10:12:09;;;;;;;16.60;14.90;;;3.80;99.90;;;;;;5108107;28;20046;-79
2022/12/05 10:15:00;;;;;;;16.85;15.13;;;3.80;99.90;;;;;;5108230;28;20031;-79
2022/12/05 10:17:32;;;;;;;18.38;16.58;;;3.80;99.90;;;;;;5125631;28;20035;-79
2022/12/05 10:20:12;;;;;;;15.93;14.30;;;3.80;99.90;;;;;;5125296;28;20057;-79
2022/12/05 10:22:53;;;;;;;18.95;16.02;;;3.80;99.90;;;;;;5105187;28;20032;-79
2022/12/05 10:25:21;;;;;;;18.67;16.40;;;3.80;99.90;;;;;;5104418;28;20100;-79
2022/12/05 10:27:51;;;;;;;15.75;14.23;;;3.80;99.90;;;;;;5087541;28;20072;-79
2022/12/05 10:30:20;;;;;;;16.42;14.70;;;3.70;99.90;;;;;;5087479;28;20028;-79
2022/12/05 10:32:49;;;;;;;17.35;15.70;;;3.80;99.90;;;;;;5122643;28;20047;-79
2022/12/05 10:35:16;;;;;;;15.10;13.52;;;3.80;99.90;;;;;;5104362;28;20061;-78
2022/12/05 10:37:47;;;;;;;16.02;14.40;;;3.90;99.90;;;;;;5097121;28;20114;-78
2022/12/05 10:40:14;;;;;;;13.52;11.73;;;3.90;99.90;;;;;;5087452;28;20112;-79
2022/12/05 10:42:41;;;;;;;14.05;12.68;;;3.90;99.90;;;;;;5087410;28;20063;-79
2022/12/05 10:45:16;;;;;;;14.93;13.32;;;3.90;99.90;;;;;;5088468;28;20032;-79
2022/12/05 10:47:41;;;;;;;13.98;12.55;;;4.00;99.90;;;;;;5070493;28;20059;-79
2022/12/05 10:50:38;;;;;;;15.05;13.38;;;4.00;99.90;;;;;;5087300;28;20029;-78
2022/12/05 10:53:05;;;;;;;13.20;11.75;;;4.00;99.90;;;;;;5079092;28;20040;-79
2022/12/05 10:55:38;;;;;;;14.48;13.18;;;4.00;99.90;;;;;;5086960;28;20092;-79
2022/12/05 10:58:33;;;;;;;14.63;13.27;;;4.00;99.90;;;;;;5070276;28;20033;-79
2022/12/05 11:01:12;;;;;;;13.57;12.27;;;3.80;99.90;;;;;;5086621;28;20041;-79
2022/12/05 11:03:39;;;;;;;13.73;11.43;;;3.80;99.90;;;;;;5070017;28;20025;-78
2022/12/05 11:06:24;;;;;;;15.32;13.82;;;3.60;99.90;;;;;;5088103;28;20028;-79
2022/12/05 11:08:53;;;;;;;17.20;15.40;;;3.60;99.90;;;;;;5070074;28;20021;-79
2022/12/05 11:11:29;;;;;;;14.52;13.13;;;3.70;99.90;;;;;;5086906;28;20044;-79
2022/12/05 11:14:16;;;;;;;15.23;13.60;;;3.70;99.90;;;;;;5086827;28;20024;-79
2022/12/05 11:16:53;;;;;;;15.30;12.32;;;3.80;99.90;;;;;;5069723;28;20095;-78
2022/12/05 11:19:30;;;;;;;15.10;13.02;;;3.80;99.90;;;;;;5086742;28;20087;-79
2022/12/05 11:21:57;;;;;;;14.60;13.15;;;3.80;99.90;;;;;;5086310;28;20036;-79
2022/12/05 11:24:34;;;;;;;14.50;13.00;;;3.70;99.90;;;;;;5053517;28;20107;-79
2022/12/05 11:27:26;;;;;;;15.65;13.63;;;3.80;99.90;;;;;;5069988;28;20390;-78
2022/12/05 11:30:03;;;;;;;15.30;13.70;;;3.70;99.90;;;;;;5087771;28;20021;-79
2022/12/05 11:32:32;;;;;;;14.88;13.45;;;3.70;99.90;;;;;;5087657;28;20052;-79
2022/12/05 11:35:04;;;;;;;16.65;14.10;;;3.70;99.90;;;;;;5069621;28;20040;-79
2022/12/05 11:37:43;;;;;;;13.95;12.70;;;3.70;99.90;;;;;;5086227;28;20048;-78
2022/12/05 11:40:47;;;;;;;13.32;11.05;;;3.80;99.90;;;;;;5087615;28;20032;-79
2022/12/05 11:43:40;;;;;;;14.52;12.35;;;3.80;99.90;;;;;;5086254;28;20461;-79
2022/12/05 11:46:32;;;;;;;16.05;13.68;;;3.80;99.90;;;;;;5087554;28;20062;-79
2022/12/05 11:49:42;;;;;;;14.68;13.23;;;3.80;99.90;;;;;;5087157;28;20028;-79
2022/12/05 11:52:26;;;;;;;11.98;10.55;;;3.80;99.90;;;;;;5064793;28;20032;-79
2022/12/05 11:55:21;;;;;;;11.77;10.65;;;3.70;99.90;;;;;;5085870;28;20036;-79
2022/12/05 11:57:47;;;;;;;14.15;12.43;;;3.70;99.90;;;;;;5061563;28;20039;-79
2022/12/05 12:00:25;;;;;;;14.02;12.60;;;3.90;99.90;;;;;;5085928;28;20056;-78
2022/12/05 12:03:15;;;;;;;11.65;10.43;;;3.90;99.90;;;;;;5087056;28;20028;-79
2022/12/05 12:05:47;;;;;;;;;;;3.90;99.90;;;;;;5087784;28;20044;-79
2022/12/05 12:08:25;;;;;;;13.00;11.82;;;4.00;99.90;;;;;;5085861;28;19912;-79
2022/12/05 12:11:12;;;;;;;13.15;11.73;;;4.10;99.90;;;;;;5085591;28;20024;-79
2022/12/05 12:14:09;;;;;;;12.63;11.35;;;4.30;99.90;;;;;;5068992;28;20035;-79
2022/12/05 12:16:47;;;;;;;15.32;11.68;;;4.40;99.90;;;;;;5085567;28;20033;-79
2022/12/05 12:19:22;;;;;;;78.30;67.90;;;4.40;99.90;;;;;;5085677;28;20028;-79
2022/12/05 12:21:56;;;;;;;26.17;23.67;;;4.40;99.90;;;;;;5085312;28;20052;-79
2022/12/05 12:24:25;;;;;;;23.90;18.90;;;4.50;99.90;;;;;;5084395;28;20039;-79
2022/12/05 12:27:03;;;;;;;11.40;10.25;;;4.60;99.90;;;;;;5085401;28;20054;-79
2022/12/05 12:29:38;;;;;;;17.20;15.70;;;4.60;99.90;;;;;;5085465;28;20032;-79
2022/12/05 12:32:18;;;;;;;13.43;12.05;;;4.50;99.90;;;;;;5085180;28;20060;-79
2022/12/05 12:35:17;;;;;;;14.63;12.95;;;4.50;99.90;;;;;;5085264;28;20032;-79
2022/12/05 12:37:53;;;;;;;12.70;11.57;;;4.40;99.90;;;;;;5085154;28;20067;-79
2022/12/05 12:40:37;;;;;;;11.85;10.48;;;4.30;99.90;;;;;;5085159;28;20044;-79
2022/12/05 12:43:40;;;;;;;12.40;11.30;;;4.30;99.90;;;;;;5078016;28;20483;-79
2022/12/05 12:46:37;;;;;;;14.27;11.98;;;4.30;99.90;;;;;;5084800;28;20060;-79
2022/12/05 12:49:05;;;;;;;9.52;8.82;;;4.20;99.90;;;;;;5067678;28;20188;-79
2022/12/05 12:51:32;;;;;;;14.68;12.60;;;4.20;99.90;;;;;;5086178;28;20052;-79
2022/12/05 12:54:27;;;;;;;14.63;13.13;;;4.20;99.90;;;;;;5084874;28;20044;-79
2022/12/05 12:57:05;;;;;;;14.05;11.77;;;4.20;99.90;;;;;;5086317;28;20060;-77
2022/12/05 13:00:15;;;;;;;9.95;8.98;;;4.30;99.90;;;;;;5085092;28;20088;-79
2022/12/05 13:02:51;;;;;;;11.30;9.00;;;4.30;99.90;;;;;;5073191;28;20050;-79
2022/12/05 13:05:48;;;;;;;9.63;8.73;;;4.30;99.90;;;;;;5084740;28;20040;-79
2022/12/05 13:08:32;;;;;;;11.65;9.77;;;4.30;99.90;;;;;;5084568;28;20024;-79
2022/12/05 13:11:01;;;;;;;11.98;10.77;;;4.40;99.90;;;;;;5067890;28;20029;-79
2022/12/05 13:13:35;;;;;;;9.82;8.90;;;4.30;99.90;;;;;;5084693;28;20036;-80
2022/12/05 13:16:06;;;;;;;8.23;7.43;;;4.30;99.90;;;;;;5084537;28;20028;-79
2022/12/05 13:18:33;;;;;;;9.77;8.88;;;4.20;99.90;;;;;;5084336;28;20036;-79
2022/12/05 13:21:05;;;;;;;9.05;8.43;;;4.20;99.90;;;;;;5085906;28;20017;-79
2022/12/05 13:23:35;;;;;;;8.55;7.57;;;4.20;99.90;;;;;;5085940;28;20024;-79
2022/12/05 13:26:08;;;;;;;10.95;9.48;;;4.10;99.90;;;;;;5084534;28;20033;-79
2022/12/05 13:28:46;;;;;;;9.85;8.93;;;4.10;99.90;;;;;;5084226;28;20032;-79